Time;durP1;ratioP1;P1;durP2;ratioP2;P2;SDS_P1;SDS_P2;PMS_P1;PMS_P2;Temp;Humidity;BMP_temperature;BMP_pressure;BME280_temperature;BME280_humidity;BME280_pressure;Samples;Min_cycle;Max_cycle;Signal;HPM_P1;HPM_P2
2022/07/01 00:01:40;;;;;;;6.10;5.57;;;22.80;1.00;;;;;;4996995;28;20412;-88
2022/07/01 00:04:06;;;;;;;6.17;5.57;;;22.90;1.00;;;;;;4995932;28;20501;-83
2022/07/01 00:06:32;;;;;;;6.67;5.20;;;22.90;1.00;;;;;;4995739;28;20485;-93
2022/07/01 00:08:58;;;;;;;6.80;6.10;;;22.90;1.00;;;;;;4998171;28;20415;-83
2022/07/01 00:11:24;;;;;;;7.17;4.93;;;22.90;1.00;;;;;;5000041;28;20426;-84
2022/07/01 00:13:49;;;;;;;10.50;3.00;;;22.90;1.00;;;;;;4998241;28;20185;-91
2022/07/01 00:16:15;;;;;;;3.73;2.60;;;22.90;99.90;;;;;;5004298;28;20178;-85
2022/07/01 00:18:40;;;;;;;2.93;2.23;;;22.80;99.90;;;;;;5005121;28;20175;-83
2022/07/01 00:21:09;;;;;;;3.33;1.07;;;22.70;99.90;;;;;;4999422;28;20188;-90
2022/07/01 00:23:35;;;;;;;2.33;1.10;;;22.60;99.90;;;;;;4996228;28;20214;-93
2022/07/01 00:26:00;;;;;;;1.70;1.17;;;22.40;99.90;;;;;;4996344;28;20528;-89
2022/07/01 00:28:26;;;;;;;1.93;1.30;;;22.20;1.00;;;;;;4995595;28;20174;-86
2022/07/01 00:30:52;;;;;;;2.20;0.87;;;22.10;1.00;;;;;;4995760;28;20182;-83
2022/07/01 00:33:17;;;;;;;1.90;1.30;;;21.90;1.00;;;;;;5000515;28;20157;-82
2022/07/01 00:35:43;;;;;;;4.00;2.80;;;21.70;25.80;;;;;;5001960;28;20477;-86
2022/07/01 00:38:08;;;;;;;2.63;1.60;;;21.60;99.90;;;;;;4997384;28;20281;-92
2022/07/01 00:43:02;;;;;;;11.40;3.90;;;21.20;99.90;;;;;;5013625;28;20202;-83
2022/07/01 00:45:28;;;;;;;13.10;4.27;;;20.60;99.90;;;;;;5012748;28;20467;-86
2022/07/01 00:47:54;;;;;;;16.10;6.17;;;20.40;99.90;;;;;;5013955;28;20427;-83
2022/07/01 00:50:19;;;;;;;8.63;3.53;;;20.20;99.90;;;;;;5013903;28;20238;-90
2022/07/01 00:52:47;;;;;;;4.30;2.17;;;20.00;99.90;;;;;;5013287;28;20268;-86
2022/07/01 00:55:14;;;;;;;7.50;3.87;;;20.00;99.90;;;;;;5013853;28;20169;-83
2022/07/01 00:57:41;;;;;;;9.70;3.30;;;19.90;99.90;;;;;;5012537;28;20450;-90
2022/07/01 01:00:11;;;;;;;9.10;3.50;;;19.90;99.90;;;;;;5013448;28;20422;-83
2022/07/01 01:02:37;;;;;;;10.57;4.87;;;19.70;99.90;;;;;;5012946;28;20468;-84
2022/07/01 01:05:07;;;;;;;6.63;3.70;;;19.50;99.90;;;;;;5013700;28;20425;-92
2022/07/01 01:07:33;;;;;;;6.97;3.67;;;19.40;99.90;;;;;;5014262;28;20409;-84
2022/07/01 01:10:00;;;;;;;4.57;2.80;;;19.40;99.90;;;;;;5014255;28;20414;-82
2022/07/01 01:12:26;;;;;;;4.33;2.83;;;19.40;99.90;;;;;;5013841;28;20160;-85
2022/07/01 01:14:52;;;;;;;6.60;2.73;;;19.30;99.90;;;;;;5012672;28;20421;-84
2022/07/01 01:17:18;;;;;;;5.63;2.50;;;19.10;99.90;;;;;;5014067;28;20173;-81
2022/07/01 01:19:45;;;;;;;4.23;2.13;;;19.00;99.90;;;;;;5012286;28;20425;-82
2022/07/01 01:22:14;;;;;;;6.53;3.40;;;18.90;99.90;;;;;;5013637;28;20425;-82
2022/07/01 01:24:39;;;;;;;4.57;3.00;;;18.80;99.90;;;;;;5013533;28;20424;-86
2022/07/01 01:27:05;;;;;;;4.60;2.60;;;18.80;99.90;;;;;;5013415;28;20473;-81
2022/07/01 01:29:31;;;;;;;5.20;2.50;;;18.80;99.90;;;;;;5013574;28;20202;-82
2022/07/01 01:31:57;;;;;;;3.43;2.47;;;18.70;99.90;;;;;;5013502;28;20933;-80
2022/07/01 01:34:22;;;;;;;3.77;2.03;;;18.70;99.90;;;;;;5013090;28;20249;-81
2022/07/01 01:36:48;;;;;;;6.53;3.37;;;18.60;99.90;;;;;;5013116;28;20182;-81
2022/07/01 01:41:39;;;;;;;5.23;3.00;;;18.60;99.90;;;;;;5013287;28;20222;-86
2022/07/01 01:44:04;;;;;;;4.73;3.30;;;18.50;99.90;;;;;;5011305;28;20218;-80
2022/07/01 01:46:30;;;;;;;6.70;3.27;;;18.60;99.90;;;;;;5011860;28;20213;-83
2022/07/01 01:48:57;;;;;;;4.40;3.27;;;18.70;99.90;;;;;;5011898;28;20654;-87
2022/07/01 01:51:22;;;;;;;7.70;3.60;;;18.80;99.90;;;;;;5013217;28;20171;-84
2022/07/01 01:53:48;;;;;;;5.67;3.17;;;18.80;99.90;;;;;;5013148;28;20432;-83
2022/07/01 01:56:14;;;;;;;5.17;3.33;;;18.80;99.90;;;;;;5013130;28;20191;-81
2022/07/01 01:58:42;;;;;;;9.23;4.00;;;18.80;99.90;;;;;;5012075;28;20649;-85
2022/07/01 02:01:09;;;;;;;4.80;3.50;;;18.70;99.90;;;;;;5013416;28;20171;-81
2022/07/01 02:03:35;;;;;;;5.13;3.00;;;18.70;99.90;;;;;;5013223;28;20424;-83
2022/07/01 02:06:01;;;;;;;5.93;3.50;;;18.80;99.90;;;;;;5012622;28;20602;-87
2022/07/01 02:08:26;;;;;;;4.70;4.20;;;18.80;99.90;;;;;;5011921;28;20946;-86
2022/07/01 02:10:52;;;;;;;11.13;4.10;;;18.90;99.90;;;;;;5014383;28;20171;-86
2022/07/01 02:13:17;;;;;;;9.60;4.33;;;19.00;99.90;;;;;;5016012;28;20631;-81
2022/07/01 02:15:43;;;;;;;4.20;3.67;;;18.90;99.90;;;;;;5017048;28;20165;-86
2022/07/01 02:18:08;;;;;;;6.30;4.20;;;18.90;99.90;;;;;;5016558;28;20280;-87
2022/07/01 02:20:34;;;;;;;5.83;3.80;;;19.00;99.90;;;;;;5016808;28;20180;-90
2022/07/01 02:22:59;;;;;;;6.60;3.70;;;18.90;99.90;;;;;;5014918;28;20210;-87
2022/07/01 02:25:25;;;;;;;6.70;4.70;;;18.80;99.90;;;;;;5016092;28;20199;-83
2022/07/01 02:27:50;;;;;;;6.20;3.90;;;18.80;99.90;;;;;;5016046;28;20193;-87
2022/07/01 02:30:16;;;;;;;6.73;4.03;;;18.90;99.90;;;;;;5017216;28;20177;-87
2022/07/01 02:32:42;;;;;;;5.53;4.27;;;18.90;99.90;;;;;;5017207;28;20266;-86
2022/07/01 02:35:08;;;;;;;4.70;3.70;;;18.90;99.90;;;;;;5016611;28;20225;-82
2022/07/01 02:37:34;;;;;;;7.33;5.20;;;18.90;99.90;;;;;;5016772;28;20930;-85
2022/07/01 02:39:59;;;;;;;7.57;4.33;;;18.90;99.90;;;;;;5017243;28;20184;-85
2022/07/01 02:42:31;;;;;;;7.27;4.60;;;18.80;99.90;;;;;;5016864;28;20717;-85
2022/07/01 02:44:57;;;;;;;4.23;3.83;;;18.80;99.90;;;;;;5016777;28;20178;-84
2022/07/01 02:47:22;;;;;;;8.13;4.63;;;18.90;99.90;;;;;;5016811;28;20433;-84
2022/07/01 02:49:48;;;;;;;7.53;4.80;;;19.00;99.90;;;;;;5016313;28;20538;-87
2022/07/01 02:52:15;;;;;;;15.47;6.20;;;18.90;99.90;;;;;;5016781;28;20186;-87
2022/07/01 02:54:41;;;;;;;7.93;5.80;;;18.90;99.90;;;;;;5016852;28;20439;-89
2022/07/01 02:57:07;;;;;;;7.33;5.30;;;18.90;99.90;;;;;;5016771;28;20440;-83
2022/07/01 02:59:32;;;;;;;9.43;6.13;;;18.90;99.90;;;;;;5016509;28;20428;-84
2022/07/01 03:01:58;;;;;;;10.80;6.70;;;18.90;99.90;;;;;;5016476;28;20182;-85
2022/07/01 03:04:23;;;;;;;8.13;6.73;;;18.90;99.90;;;;;;5016001;28;20182;-88
2022/07/01 03:06:49;;;;;;;11.90;8.13;;;19.00;99.90;;;;;;5016252;28;20252;-90
2022/07/01 03:09:14;;;;;;;17.63;9.87;;;19.00;99.90;;;;;;5016587;28;20203;-87
2022/07/01 03:11:40;;;;;;;13.13;10.20;;;19.00;99.90;;;;;;5016368;28;20181;-88
2022/07/01 03:14:05;;;;;;;12.07;8.90;;;19.10;99.90;;;;;;5016501;28;20174;-81
2022/07/01 03:16:31;;;;;;;17.27;9.10;;;19.10;99.90;;;;;;5016173;28;20189;-86
2022/07/01 03:18:57;;;;;;;10.93;8.10;;;19.10;99.90;;;;;;5014549;28;20185;-85
2022/07/01 03:21:22;;;;;;;11.57;8.03;;;19.20;99.90;;;;;;5015052;28;20175;-83
2022/07/01 03:23:48;;;;;;;9.87;8.53;;;19.20;99.90;;;;;;5016372;28;20427;-83
2022/07/01 03:26:14;;;;;;;11.63;7.30;;;19.20;99.90;;;;;;5016119;28;20208;-84
2022/07/01 03:28:40;;;;;;;6.30;5.47;;;19.20;99.90;;;;;;5015970;28;20177;-85
2022/07/01 03:31:06;;;;;;;5.43;4.07;;;19.20;99.90;;;;;;5014859;28;20433;-83
2022/07/01 03:33:31;;;;;;;6.60;4.77;;;19.20;99.90;;;;;;5015471;28;20410;-83
2022/07/01 03:35:57;;;;;;;7.80;4.60;;;19.20;99.90;;;;;;5014475;28;20174;-81
2022/07/01 03:38:22;;;;;;;6.77;4.83;;;19.20;99.90;;;;;;5015626;28;20181;-81
2022/07/01 03:40:48;;;;;;;5.33;4.17;;;19.20;99.90;;;;;;5015499;28;20173;-81
2022/07/01 03:43:13;;;;;;;5.27;4.00;;;19.20;99.90;;;;;;5015591;28;20217;-83
2022/07/01 03:45:39;;;;;;;4.90;3.80;;;19.20;99.90;;;;;;5015454;28;20260;-83
2022/07/01 03:48:05;;;;;;;7.27;3.20;;;19.20;99.90;;;;;;5015522;28;20164;-81
2022/07/01 03:50:30;;;;;;;5.80;5.07;;;19.20;99.90;;;;;;5015058;28;20929;-83
2022/07/01 03:55:41;;;;;;;6.27;4.80;;;19.30;99.90;;;;;;5015533;28;20193;-83
2022/07/01 03:58:07;;;;;;;7.10;4.60;;;19.20;99.90;;;;;;5015356;28;20409;-81
2022/07/01 04:00:36;;;;;;;7.67;5.40;;;19.30;99.90;;;;;;5015395;28;20833;-80
2022/07/01 04:03:06;;;;;;;7.40;6.70;;;19.30;99.90;;;;;;5015038;28;20177;-82
2022/07/01 04:05:36;;;;;;;5.53;5.03;;;19.40;99.90;;;;;;5014583;28;20580;-80
2022/07/01 04:08:03;;;;;;;7.90;7.10;;;19.40;99.90;;;;;;5015059;28;20445;-81
2022/07/01 04:10:32;;;;;;;7.57;6.77;;;19.30;99.90;;;;;;5015566;28;20817;-81
2022/07/01 04:12:58;;;;;;;9.30;8.27;;;19.40;99.90;;;;;;5015574;28;20433;-91
2022/07/01 04:15:23;;;;;;;9.43;8.43;;;19.40;99.90;;;;;;5015505;28;20418;-90
2022/07/01 04:17:49;;;;;;;10.33;8.90;;;19.40;99.90;;;;;;5014536;28;20913;-88
2022/07/01 04:20:15;;;;;;;11.80;9.67;;;19.30;99.90;;;;;;5015310;28;20202;-90
2022/07/01 04:22:40;;;;;;;11.03;10.00;;;19.30;99.90;;;;;;5015602;28;20188;-80
2022/07/01 04:25:07;;;;;;;12.30;11.00;;;19.30;99.90;;;;;;5014637;28;20275;-81
2022/07/01 04:27:32;;;;;;;12.10;10.90;;;19.30;99.90;;;;;;5013430;28;20198;-82
2022/07/01 04:29:58;;;;;;;11.90;10.80;;;19.20;99.90;;;;;;5014577;28;20452;-80
2022/07/01 04:32:24;;;;;;;11.03;10.03;;;19.30;99.90;;;;;;5014398;28;20174;-80
2022/07/01 04:34:50;;;;;;;10.90;9.80;;;19.30;99.90;;;;;;5014192;28;20171;-81
2022/07/01 04:37:16;;;;;;;9.13;7.80;;;19.30;99.90;;;;;;5014457;28;20177;-80
2022/07/01 04:39:41;;;;;;;9.67;8.70;;;19.30;99.90;;;;;;5014606;28;20858;-85
2022/07/01 04:42:08;;;;;;;14.50;7.93;;;19.20;99.90;;;;;;5014106;28;20243;-81
2022/07/01 04:44:35;;;;;;;6.40;5.53;;;19.10;99.90;;;;;;5014321;28;20421;-81
2022/07/01 04:47:02;;;;;;;6.80;6.10;;;19.10;99.90;;;;;;5013016;28;20703;-82
2022/07/01 04:49:28;;;;;;;6.20;5.60;;;19.00;99.90;;;;;;5013879;28;20753;-82
2022/07/01 04:51:54;;;;;;;6.07;4.50;;;19.00;99.90;;;;;;5014269;28;20443;-85
2022/07/01 04:54:20;;;;;;;5.60;5.10;;;18.90;99.90;;;;;;5014042;28;20917;-80
2022/07/01 04:56:45;;;;;;;6.07;4.50;;;18.80;99.90;;;;;;5014235;28;20415;-80
2022/07/01 04:59:12;;;;;;;5.57;5.07;;;18.80;99.90;;;;;;4996666;28;20178;-80
2022/07/01 05:01:38;;;;;;;6.83;6.13;;;18.70;99.90;;;;;;5013984;28;20172;-82
2022/07/01 05:04:04;;;;;;;9.83;6.40;;;18.60;99.90;;;;;;5013717;28;20773;-80
2022/07/01 05:06:29;;;;;;;10.83;7.10;;;18.60;99.90;;;;;;5013862;28;20308;-81
2022/07/01 05:08:55;;;;;;;8.03;7.20;;;18.50;99.90;;;;;;5013892;28;20169;-81
2022/07/01 05:11:21;;;;;;;7.47;6.70;;;18.40;99.90;;;;;;5013877;28;20218;-81
2022/07/01 05:13:46;;;;;;;10.40;7.10;;;18.30;99.90;;;;;;5013835;28;20218;-81
2022/07/01 05:16:12;;;;;;;12.40;7.63;;;18.20;99.90;;;;;;5013735;28;20178;-80
2022/07/01 05:24:06;;;;;;;13.07;8.27;;;18.00;99.90;;;;;;5013924;28;20426;-81
2022/07/01 05:26:32;;;;;;;13.53;8.93;;;17.90;99.90;;;;;;5013509;28;20481;-80
2022/07/01 05:28:58;;;;;;;11.30;9.33;;;17.80;99.90;;;;;;5013555;28;20417;-84
2022/07/01 05:31:23;;;;;;;10.47;8.10;;;17.80;99.90;;;;;;5012211;28;20482;-80
2022/07/01 05:33:49;;;;;;;12.00;7.17;;;17.80;99.90;;;;;;5013193;28;20645;-81
2022/07/01 05:36:15;;;;;;;7.87;7.07;;;17.80;99.90;;;;;;5012226;28;20175;-79
2022/07/01 05:38:40;;;;;;;10.00;5.20;;;17.70;99.90;;;;;;5013469;28;20181;-81
2022/07/01 05:41:07;;;;;;;6.50;5.13;;;17.60;99.90;;;;;;5013242;28;20465;-81
2022/07/01 05:43:33;;;;;;;5.73;3.73;;;17.50;99.90;;;;;;5013358;28;20830;-79
2022/07/01 05:45:59;;;;;;;4.73;2.77;;;17.60;99.90;;;;;;5012667;28;20474;-80
2022/07/01 05:48:25;;;;;;;5.57;1.70;;;17.50;99.90;;;;;;5012840;28;20411;-79
2022/07/01 05:50:51;;;;;;;5.10;2.20;;;17.50;99.90;;;;;;5013301;28;20487;-80
2022/07/01 05:53:16;;;;;;;9.93;2.97;;;17.50;99.90;;;;;;5013418;28;20176;-80
2022/07/01 05:55:42;;;;;;;5.13;2.63;;;17.40;99.90;;;;;;5013295;28;20941;-79
2022/07/01 05:58:10;;;;;;;4.70;1.77;;;17.40;99.90;;;;;;5013349;28;20230;-80
2022/07/01 06:00:35;;;;;;;5.00;1.20;;;17.20;99.90;;;;;;5012066;28;20176;-79
2022/07/01 06:03:01;;;;;;;4.53;2.07;;;17.20;99.90;;;;;;5013281;28;20487;-79
2022/07/01 06:05:26;;;;;;;3.30;1.30;;;17.00;99.90;;;;;;5013132;28;20695;-80
2022/07/01 06:07:52;;;;;;;5.03;2.00;;;17.00;99.90;;;;;;5013104;28;20666;-80
2022/07/01 06:10:18;;;;;;;6.37;2.57;;;17.00;99.90;;;;;;5013122;28;20176;-80
2022/07/01 06:12:44;;;;;;;5.63;2.30;;;17.00;99.90;;;;;;5013116;28;20170;-80
2022/07/01 06:15:12;;;;;;;2.90;0.63;;;16.90;99.90;;;;;;5013102;28;20174;-81
2022/07/01 06:17:39;;;;;;;7.23;1.50;;;16.70;99.90;;;;;;5013073;28;20168;-80
2022/07/01 06:20:06;;;;;;;1.97;0.70;;;16.70;99.90;;;;;;5012705;28;20452;-80
2022/07/01 06:22:32;;;;;;;4.30;1.17;;;16.70;99.90;;;;;;5012837;28;20421;-81
2022/07/01 06:24:58;;;;;;;1.57;0.83;;;16.70;99.90;;;;;;5012992;28;20422;-80
2022/07/01 06:27:24;;;;;;;4.00;1.07;;;16.70;99.90;;;;;;5012938;28;20468;-80
2022/07/01 06:29:50;;;;;;;3.17;0.63;;;16.60;99.90;;;;;;5013082;28;20197;-88
2022/07/01 06:32:16;;;;;;;3.80;0.90;;;16.50;99.90;;;;;;5011760;28;20592;-81
2022/07/01 06:34:41;;;;;;;3.30;0.87;;;16.50;99.90;;;;;;5012563;28;20423;-82
2022/07/01 06:37:07;;;;;;;3.80;1.27;;;16.40;99.90;;;;;;5012958;28;20656;-81
2022/07/01 06:39:33;;;;;;;2.30;0.60;;;16.50;99.90;;;;;;5012999;28;20518;-81
2022/07/01 06:41:58;;;;;;;2.87;0.57;;;16.50;99.90;;;;;;5012664;28;20471;-81
2022/07/01 06:44:24;;;;;;;3.37;1.00;;;16.60;99.90;;;;;;5012762;28;20729;-80
2022/07/01 06:46:49;;;;;;;5.03;1.40;;;16.60;99.90;;;;;;5012890;28;20213;-83
2022/07/01 06:49:15;;;;;;;5.73;1.90;;;16.70;99.90;;;;;;5012489;28;20167;-82
2022/07/01 06:51:41;;;;;;;5.30;1.30;;;16.80;99.90;;;;;;5012792;28;20267;-80
2022/07/01 06:54:06;;;;;;;3.70;1.50;;;16.90;99.90;;;;;;5012750;28;20185;-81
2022/07/01 06:56:32;;;;;;;2.23;1.10;;;16.90;99.90;;;;;;5014548;28;20176;-81
2022/07/01 06:58:57;;;;;;;4.10;1.40;;;16.80;99.90;;;;;;5016321;28;20181;-81
2022/07/01 07:01:24;;;;;;;3.17;1.67;;;16.80;99.90;;;;;;5016278;28;20178;-83
2022/07/01 07:03:50;;;;;;;2.30;1.17;;;16.80;99.90;;;;;;5015737;28;20177;-80
2022/07/01 07:06:16;;;;;;;3.00;1.70;;;17.00;99.90;;;;;;5016030;28;20686;-81
2022/07/01 07:08:42;;;;;;;2.10;1.20;;;17.20;99.90;;;;;;5016133;28;20418;-82
2022/07/01 07:11:08;;;;;;;5.13;1.40;;;17.30;99.90;;;;;;5015960;28;20426;-80
2022/07/01 07:13:35;;;;;;;1.77;0.97;;;17.40;99.90;;;;;;5016018;28;20171;-80
2022/07/01 07:16:01;;;;;;;2.27;0.87;;;17.20;99.90;;;;;;5015956;28;20424;-81
2022/07/01 07:18:29;;;;;;;3.37;0.90;;;17.20;99.90;;;;;;5015569;28;20479;-81
2022/07/01 07:20:54;;;;;;;2.30;1.60;;;17.10;99.90;;;;;;5015691;28;20206;-80
2022/07/01 07:23:20;;;;;;;2.70;1.03;;;17.10;99.90;;;;;;5014616;28;20794;-79
2022/07/01 07:25:45;;;;;;;4.03;1.33;;;17.10;99.90;;;;;;5015867;28;20209;-80
2022/07/01 07:28:11;;;;;;;4.00;0.97;;;17.00;99.90;;;;;;5015937;28;20251;-86
2022/07/01 07:30:37;;;;;;;1.40;0.53;;;16.80;99.90;;;;;;5015947;28;20191;-87
2022/07/01 07:33:02;;;;;;;2.30;1.23;;;16.80;99.90;;;;;;5015532;28;20654;-82
2022/07/01 07:35:28;;;;;;;1.97;1.10;;;16.70;99.90;;;;;;5015593;28;20216;-82
2022/07/01 07:37:57;;;;;;;2.97;1.17;;;16.70;99.90;;;;;;5014496;28;20212;-82
2022/07/01 07:40:22;;;;;;;2.77;0.90;;;16.60;99.90;;;;;;5015505;28;20646;-86
2022/07/01 07:42:51;;;;;;;1.47;0.70;;;16.60;99.90;;;;;;5014202;28;20463;-81
2022/07/01 07:45:17;;;;;;;1.47;0.87;;;16.60;99.90;;;;;;5015514;28;20200;-79
2022/07/01 07:47:48;;;;;;;0.90;0.60;;;16.60;99.90;;;;;;5014272;28;20994;-83
2022/07/01 07:50:14;;;;;;;3.40;0.60;;;16.60;99.90;;;;;;5015479;28;20408;-81
2022/07/01 07:52:40;;;;;;;3.23;1.53;;;16.50;99.90;;;;;;5015426;28;20431;-84
2022/07/01 07:55:07;;;;;;;4.10;0.97;;;16.60;99.90;;;;;;5015570;28;20443;-82
2022/07/01 07:57:35;;;;;;;1.80;1.10;;;16.70;99.90;;;;;;5014075;28;20436;-86
2022/07/01 08:00:01;;;;;;;2.70;1.17;;;16.80;99.90;;;;;;5015386;28;20411;-83
2022/07/01 08:02:26;;;;;;;1.70;0.40;;;16.70;99.90;;;;;;5015468;28;20946;-88
2022/07/01 08:04:52;;;;;;;4.20;0.93;;;16.80;99.90;;;;;;5013754;28;20269;-86
2022/07/01 08:07:17;;;;;;;1.50;0.67;;;16.80;99.90;;;;;;5014787;28;20263;-81
2022/07/01 08:09:47;;;;;;;1.60;0.40;;;16.70;99.90;;;;;;5015278;28;20181;-90
2022/07/01 08:12:13;;;;;;;1.60;0.60;;;16.60;99.90;;;;;;5015481;28;20177;-88
2022/07/01 08:14:38;;;;;;;2.27;0.50;;;16.70;99.90;;;;;;5015079;28;21007;-86
2022/07/01 08:17:04;;;;;;;2.63;1.33;;;16.60;99.90;;;;;;5015059;28;20223;-86
2022/07/01 08:19:30;;;;;;;4.43;0.70;;;16.50;99.90;;;;;;5014125;28;20189;-84
2022/07/01 08:21:55;;;;;;;1.80;0.77;;;16.50;99.90;;;;;;5014930;28;20259;-85
2022/07/01 08:24:21;;;;;;;3.47;1.07;;;16.50;99.90;;;;;;5015170;28;20193;-83
2022/07/01 08:26:47;;;;;;;4.40;0.90;;;16.50;99.90;;;;;;5014294;28;20224;-84
2022/07/01 08:29:12;;;;;;;1.73;0.60;;;16.60;99.90;;;;;;5015218;28;20177;-89
2022/07/01 08:31:38;;;;;;;2.47;1.10;;;16.60;99.90;;;;;;5015028;28;20314;-86
2022/07/01 08:34:03;;;;;;;1.77;0.80;;;16.70;99.90;;;;;;5014537;28;20173;-87
2022/07/01 08:36:29;;;;;;;1.23;0.57;;;16.60;99.90;;;;;;5014810;28;20200;-84
2022/07/01 08:38:54;;;;;;;2.20;0.60;;;16.60;99.90;;;;;;5014853;28;20188;-84
2022/07/01 08:41:20;;;;;;;1.57;0.60;;;16.70;99.90;;;;;;5014966;28;20681;-91
2022/07/01 08:43:46;;;;;;;1.93;1.00;;;16.70;99.90;;;;;;5014617;28;20182;-88
2022/07/01 08:46:12;;;;;;;2.63;1.30;;;16.70;99.90;;;;;;5013596;28;20216;-84
2022/07/01 08:48:44;;;;;;;2.87;0.97;;;16.70;99.90;;;;;;5014318;28;20425;-87
2022/07/01 08:51:11;;;;;;;1.90;1.20;;;16.80;99.90;;;;;;5014702;28;20260;-91
2022/07/01 08:53:37;;;;;;;2.00;1.67;;;17.00;99.90;;;;;;5013551;28;20515;-88
2022/07/01 08:58:51;;;;;;;1.70;1.27;;;17.20;99.90;;;;;;5014924;28;20441;-86
2022/07/01 09:01:22;;;;;;;2.77;1.13;;;17.30;99.90;;;;;;5014725;28;20941;-85
2022/07/01 09:03:50;;;;;;;2.50;2.17;;;17.10;99.90;;;;;;5014296;28;20479;-91
2022/07/01 09:06:26;;;;;;;5.27;1.63;;;17.10;99.90;;;;;;5014381;28;20470;-86
2022/07/01 09:08:52;;;;;;;1.50;1.23;;;17.10;99.90;;;;;;5014332;28;20926;-86
2022/07/01 09:11:25;;;;;;;1.83;0.80;;;17.10;99.90;;;;;;5014156;28;20412;-92
2022/07/01 09:14:10;;;;;;;2.67;0.67;;;17.10;99.90;;;;;;5014502;28;20178;-80
2022/07/01 09:16:39;;;;;;;1.87;1.10;;;17.20;99.90;;;;;;5014321;28;20431;-90
2022/07/01 09:19:05;;;;;;;2.00;1.23;;;17.00;99.90;;;;;;5013633;28;20447;-80
2022/07/01 09:21:32;;;;;;;2.30;1.23;;;17.00;99.90;;;;;;5013948;28;20424;-88
2022/07/01 09:24:21;;;;;;;2.40;1.20;;;16.90;99.90;;;;;;5014206;28;20178;-90
2022/07/01 09:26:56;;;;;;;2.60;1.40;;;16.70;99.90;;;;;;5013840;28;20465;-90
2022/07/01 09:29:33;;;;;;;1.80;1.00;;;16.70;99.90;;;;;;5014047;28;20415;-83
2022/07/01 09:32:01;;;;;;;1.40;0.90;;;16.80;99.90;;;;;;5013836;28;20459;-90
2022/07/01 09:34:26;;;;;;;2.00;1.13;;;16.80;99.90;;;;;;5012556;28;20426;-86
2022/07/01 09:36:54;;;;;;;2.63;1.23;;;16.70;99.90;;;;;;5013640;28;20506;-81
2022/07/01 09:39:20;;;;;;;3.23;1.47;;;16.70;99.90;;;;;;5013855;28;20184;-88
2022/07/01 09:41:46;;;;;;;3.27;0.97;;;16.80;99.90;;;;;;5013471;28;20981;-88
2022/07/01 09:44:14;;;;;;;2.07;1.23;;;16.80;99.90;;;;;;5013807;28;20189;-84
2022/07/01 09:46:55;;;;;;;1.83;0.90;;;16.80;99.90;;;;;;5013803;28;20249;-85
2022/07/01 09:49:22;;;;;;;1.90;1.47;;;17.00;99.90;;;;;;5013571;28;20720;-92
2022/07/01 09:51:49;;;;;;;2.37;1.13;;;17.00;99.90;;;;;;5013758;28;20420;-84
2022/07/01 09:54:15;;;;;;;2.37;1.10;;;17.00;99.90;;;;;;5013677;28;20903;-83
2022/07/01 09:56:41;;;;;;;2.07;1.47;;;17.00;99.90;;;;;;5012372;28;20464;-88
2022/07/01 09:59:09;;;;;;;2.63;1.00;;;16.90;99.90;;;;;;5013519;28;20417;-85
2022/07/01 10:01:38;;;;;;;3.73;0.93;;;17.00;99.90;;;;;;5013269;28;20237;-89
2022/07/01 10:04:06;;;;;;;3.53;1.00;;;17.00;99.90;;;;;;5013068;28;20774;-83
2022/07/01 10:06:56;;;;;;;2.17;1.50;;;17.00;99.90;;;;;;5013146;28;20472;-81
2022/07/01 10:09:55;;;;;;;2.37;1.70;;;16.90;99.90;;;;;;5013429;28;20423;-84
2022/07/01 10:12:20;;;;;;;3.97;2.27;;;16.70;99.90;;;;;;5013253;28;20404;-83
2022/07/01 10:14:48;;;;;;;2.07;0.87;;;16.60;99.90;;;;;;5011917;28;20750;-87
2022/07/01 10:17:28;;;;;;;2.57;1.20;;;16.60;99.90;;;;;;5013174;28;20185;-82
2022/07/01 10:20:05;;;;;;;3.40;1.00;;;16.60;99.90;;;;;;5013002;28;20943;-84
2022/07/01 10:22:30;;;;;;;2.90;0.97;;;16.60;99.90;;;;;;5011835;28;20789;-83
2022/07/01 10:25:39;;;;;;;2.37;0.97;;;16.60;99.90;;;;;;5011615;28;20426;-85
2022/07/01 10:28:16;;;;;;;3.53;1.17;;;16.60;99.90;;;;;;5011610;28;20199;-81
2022/07/01 10:31:05;;;;;;;2.60;1.30;;;16.60;99.90;;;;;;5012019;28;20489;-83
2022/07/01 10:33:31;;;;;;;2.53;2.03;;;16.60;99.90;;;;;;5016942;28;20424;-83
2022/07/01 10:36:12;;;;;;;2.23;0.97;;;16.50;99.90;;;;;;5017368;28;20410;-84
2022/07/01 10:41:30;;;;;;;6.97;2.50;;;16.50;99.90;;;;;;5017249;28;20548;-88
2022/07/01 10:43:56;;;;;;;1.83;1.03;;;16.40;99.90;;;;;;5016874;28;20414;-82
2022/07/01 10:46:37;;;;;;;2.80;1.80;;;16.50;99.90;;;;;;5015792;28;20838;-89
2022/07/01 10:49:03;;;;;;;3.00;1.27;;;16.40;99.90;;;;;;5007206;28;20924;-84
2022/07/01 10:51:48;;;;;;;3.40;2.13;;;16.40;99.90;;;;;;5006391;28;20415;-84
2022/07/01 10:54:34;;;;;;;5.63;1.10;;;16.40;99.90;;;;;;5009933;28;20427;-83
2022/07/01 10:57:19;;;;;;;4.37;2.27;;;16.40;99.90;;;;;;5015500;28;20929;-85
2022/07/01 10:59:53;;;;;;;2.67;1.80;;;16.50;99.90;;;;;;5016113;28;20419;-84
2022/07/01 11:02:26;;;;;;;4.10;1.90;;;16.60;99.90;;;;;;5014567;28;20430;-88
2022/07/01 11:04:56;;;;;;;4.80;1.93;;;16.50;99.90;;;;;;5015973;28;20488;-85
2022/07/01 11:07:25;;;;;;;3.90;1.80;;;16.40;99.90;;;;;;5015896;28;20480;-85
2022/07/01 11:09:51;;;;;;;4.23;2.77;;;16.40;99.90;;;;;;5014661;28;20443;-91
2022/07/01 11:12:16;;;;;;;5.33;2.40;;;16.40;99.90;;;;;;5015995;28;20510;-82
2022/07/01 11:14:42;;;;;;;4.90;2.57;;;16.50;99.90;;;;;;5016912;28;20165;-87
2022/07/01 11:17:09;;;;;;;4.87;2.53;;;16.50;99.90;;;;;;5015693;28;20878;-91
2022/07/01 11:19:35;;;;;;;4.07;2.50;;;16.60;99.90;;;;;;5016417;28;20443;-87
2022/07/01 11:22:02;;;;;;;6.00;2.77;;;16.70;99.90;;;;;;5015994;28;20476;-87
2022/07/01 11:24:28;;;;;;;4.20;3.10;;;17.00;99.90;;;;;;5016883;28;20763;-85
2022/07/01 11:27:07;;;;;;;3.40;2.40;;;17.00;99.90;;;;;;5016809;28;20474;-86
2022/07/01 11:29:33;;;;;;;3.10;2.30;;;17.10;99.90;;;;;;5017853;28;20168;-85
2022/07/01 11:31:58;;;;;;;4.17;2.50;;;17.10;99.90;;;;;;5015974;28;20613;-92
2022/07/01 11:34:29;;;;;;;2.93;2.60;;;17.20;99.90;;;;;;5014754;28;20763;-83
2022/07/01 11:39:41;;;;;;;5.37;3.33;;;17.40;99.90;;;;;;5019442;28;20474;-92
2022/07/01 11:42:08;;;;;;;6.87;3.77;;;17.40;99.90;;;;;;5015216;28;20477;-89
2022/07/01 11:44:42;;;;;;;3.80;3.37;;;17.40;99.90;;;;;;5017071;28;20486;-86
2022/07/01 11:47:22;;;;;;;4.10;3.27;;;17.30;99.90;;;;;;5017692;28;20473;-80
2022/07/01 11:49:48;;;;;;;6.77;4.40;;;17.20;99.90;;;;;;5019677;28;20401;-93
2022/07/01 11:52:15;;;;;;;3.33;3.03;;;17.00;99.90;;;;;;5020771;28;20425;-90
2022/07/01 11:54:45;;;;;;;4.93;4.43;;;17.10;99.90;;;;;;5017200;28;20475;-81
2022/07/01 11:57:16;;;;;;;5.77;4.00;;;17.00;99.90;;;;;;5018488;28;20410;-85
2022/07/01 11:59:44;;;;;;;4.27;3.87;;;17.00;99.90;;;;;;5017860;28;20411;-91
2022/07/01 12:02:12;;;;;;;4.83;4.43;;;17.00;99.90;;;;;;5018067;28;20423;-84
2022/07/01 12:04:39;;;;;;;4.93;4.40;;;16.90;99.90;;;;;;5016707;28;20404;-84
2022/07/01 12:07:06;;;;;;;6.23;5.63;;;16.90;99.90;;;;;;5016501;28;20472;-89
2022/07/01 12:09:31;;;;;;;6.27;5.47;;;16.90;99.90;;;;;;5016911;28;20425;-85
2022/07/01 12:11:57;;;;;;;7.40;5.23;;;16.90;99.90;;;;;;5016580;28;20915;-82
2022/07/01 12:14:25;;;;;;;5.17;4.67;;;16.90;99.90;;;;;;5015755;28;20193;-81
2022/07/01 12:16:56;;;;;;;5.53;4.83;;;17.00;99.90;;;;;;5015698;28;20239;-88
2022/07/01 12:19:28;;;;;;;5.60;4.17;;;16.90;99.90;;;;;;5014936;28;20423;-82
2022/07/01 12:21:59;;;;;;;4.97;4.20;;;17.00;99.90;;;;;;5015489;28;20411;-88
2022/07/01 12:24:27;;;;;;;5.83;4.67;;;17.00;99.90;;;;;;5014993;28;20955;-84
2022/07/01 12:26:58;;;;;;;7.30;5.90;;;17.00;99.90;;;;;;5015573;28;20478;-88
2022/07/01 12:29:26;;;;;;;6.07;4.70;;;17.00;99.90;;;;;;5014566;28;20422;-82
2022/07/01 12:32:05;;;;;;;6.43;5.47;;;17.10;99.90;;;;;;5014626;28;20425;-84
2022/07/01 12:34:42;;;;;;;6.07;4.53;;;17.20;99.90;;;;;;5007905;28;20485;-81
2022/07/01 12:37:19;;;;;;;6.77;5.17;;;17.50;99.90;;;;;;5002568;28;20811;-80
2022/07/01 12:39:59;;;;;;;5.80;5.20;;;17.70;99.90;;;;;;5003598;28;20499;-80
2022/07/01 12:42:27;;;;;;;5.77;5.20;;;17.90;99.90;;;;;;5003499;28;20449;-80
2022/07/01 12:44:56;;;;;;;6.20;4.60;;;17.80;99.90;;;;;;5002107;28;20412;-89
2022/07/01 12:47:34;;;;;;;6.20;5.37;;;18.00;99.90;;;;;;5004522;28;20799;-80
2022/07/01 12:50:28;;;;;;;7.63;5.10;;;17.90;99.90;;;;;;5002857;28;20458;-80
2022/07/01 12:52:57;;;;;;;6.70;4.77;;;17.90;99.90;;;;;;5004008;28;20745;-81
2022/07/01 12:55:23;;;;;;;5.17;4.70;;;17.90;99.90;;;;;;5003032;28;20428;-87
2022/07/01 12:57:50;;;;;;;5.43;4.63;;;18.00;99.90;;;;;;5002546;28;20436;-80
2022/07/01 13:00:20;;;;;;;7.27;5.03;;;18.00;99.90;;;;;;5003372;28;20537;-90
2022/07/01 13:02:46;;;;;;;8.50;5.10;;;18.20;99.90;;;;;;5002238;28;20462;-85
2022/07/01 13:05:13;;;;;;;7.27;4.93;;;18.50;99.90;;;;;;5002037;28;20414;-92
2022/07/01 13:07:39;;;;;;;5.80;3.80;;;18.90;99.90;;;;;;5002485;28;20473;-81
2022/07/01 13:10:05;;;;;;;3.97;3.57;;;19.50;99.90;;;;;;5001594;28;20981;-81